LPPSLPMA

Guest
Details From LPPS - Porto Santo
To LPMA - Madeira
Flight Number -
Tags Routegen Generated
Created
Modified
Stats Distance 31 nm / 58 km
Max Altitude 100 ft / 30 m
Waypoints 5
Social Downloads 23
Likes 0
Share VATSIM

Download

Looking for another format? Having issues loading an existing format? Contact us
Advertisement - Login to hide

Notes

Departing runway 17 LPPS. Arriving runway 4 LPMA.

Route

LPPS +32.99_-016.35 +32.87_-016.53 +32.76_-016.71 LPMA

ID Type Via Altitude Latitude Longitude Leg Dist Tot Dist Heading (true) Name
O LPPS APT - 0 ft / 0 m 33.05987˚ -16.34941˚ - 0 nm - -
+32.99_-016.35 LATLON - 100 ft / 30 m 32.98754˚ -16.34658˚ 4 nm 4 nm 178° / 178° -
+32.87_-016.53 LATLON - 100 ft / 30 m 32.87343˚ -16.52635˚ 11 nm 15 nm 233° / 233° -
+32.76_-016.71 LATLON - 100 ft / 30 m 32.75933˚ -16.70613˚ 11 nm 27 nm 233° / 233° -
O LPMA APT - 0 ft / 0 m 32.70641˚ -16.76481˚ 4 nm 31 nm 223° / 223° -

Altitude Profile

Advertisement - Login to hide

LPPS

Details ICAO LPPS (PXO)
Name Porto Santo
Region Portugal
Timezone Atlantic/Madeira (UTC+1.0)
Stats Elevation 340 ft / 104 m (AMSL)
Location 33.073413° -16.349946°
Runways 1
Magnetic Variation 4.764° W

METAR

LPPS 242000Z 35013KT 9999 SCT014 FEW018TCU 17/13 Q1019

Decode

TAF

TAF LPPS 241700Z 2418/2524 36013KT 9999 SCT015 TEMPO 2418/2524 FEW015 BKN030

Decode

Departure Runways

ID Width Length Bearing (true) Bearing (mag) Surface Threshold Offset Overrun Length
18 148 ft / 45 m 9,890 ft / 3,014 m 178.11° 182.87° Asphalt 0 ft / 0 m 0 ft / 0 m
36 148 ft / 45 m 9,890 ft / 3,014 m 358.12° 2.88° Asphalt 0 ft / 0 m 499 ft / 152 m

LPMA

Details ICAO LPMA (FNC)
Name Madeira
Region Portugal
Timezone Atlantic/Madeira (UTC+1.0)
Stats Elevation 192 ft / 59 m (AMSL)
Location 32.697704° -16.774449°
Runways 1
Magnetic Variation 4.927° W

METAR

LPMA 242000Z 36008KT 310V040 9999 SCT015 FEW016TCU 18/12 Q1019

Decode

TAF

TAF LPMA 241700Z 2418/2518 01012KT 9999 SCT015 TEMPO 2418/2422 36015G25KT BKN015 BECMG 2422/2424 35008KT TEMPO 2500/2508 VRB05KT BECMG 2510/2512 01015KT TEMPO 2512/2518 01015G25KT

Decode

Destination Runways

ID Width Length Bearing (true) Bearing (mag) Surface Threshold Offset Overrun Length
05 141 ft / 43 m 8,683 ft / 2,647 m 42.98° 47.91° Asphalt 472 ft / 144 m 0 ft / 0 m
23 141 ft / 43 m 8,683 ft / 2,647 m 222.99° 227.92° Asphalt 466 ft / 142 m 0 ft / 0 m

Popular Alternatives